Time;durP1;ratioP1;P1;durP2;ratioP2;P2;SDS_P1;SDS_P2;PMS_P1;PMS_P2;Temp;Humidity;BMP_temperature;BMP_pressure;BME280_temperature;BME280_humidity;BME280_pressure;Samples;Min_cycle;Max_cycle;Signal;HPM_P1;HPM_P2
2023/12/16 00:01:06;;;;;;;38.55;15.98;;;;;;;;;;6145851;28;20050;-85
2023/12/16 00:04:08;;;;;;;38.33;15.93;;;;;;;;;;6164673;28;20065;-85
2023/12/16 00:07:10;;;;;;;31.38;14.18;;;;;;;;;;6164025;28;20137;-84
2023/12/16 00:10:12;;;;;;;31.92;12.93;;;;;;;;;;6159190;28;20054;-84
2023/12/16 00:13:14;;;;;;;36.53;14.68;;;;;;;;;;6145030;28;20099;-84
2023/12/16 00:16:16;;;;;;;39.35;16.05;;;;;;;;;;6144872;28;20042;-83
2023/12/16 00:19:18;;;;;;;36.83;15.25;;;;;;;;;;6163095;28;20042;-83
2023/12/16 00:22:20;;;;;;;35.55;15.05;;;;;;;;;;6140379;28;20161;-83
2023/12/16 00:25:22;;;;;;;33.13;14.88;;;;;;;;;;6144116;28;20122;-83
2023/12/16 00:28:26;;;;;;;33.65;13.55;;;;;;;;;;6176867;28;20050;-84
2023/12/16 00:31:28;;;;;;;29.45;14.30;;;;;;;;;;6146552;28;20171;-84
2023/12/16 00:34:33;;;;;;;36.80;14.68;;;;;;;;;;6145727;28;20038;-84
2023/12/16 00:37:35;;;;;;;34.65;12.73;;;;;;;;;;6148363;28;20101;-84
2023/12/16 00:40:38;;;;;;;33.80;13.65;;;;;;;;;;6159718;28;20129;-84
2023/12/16 00:43:42;;;;;;;29.13;12.57;;;;;;;;;;6163118;28;20057;-84
2023/12/16 00:46:44;;;;;;;29.52;13.13;;;;;;;;;;6179313;28;20054;-84
2023/12/16 00:49:46;;;;;;;29.05;12.10;;;;;;;;;;6179157;28;20153;-84
2023/12/16 00:52:48;;;;;;;31.65;13.63;;;;;;;;;;6168157;28;20057;-84
2023/12/16 00:55:49;;;;;;;30.25;12.48;;;;;;;;;;6158875;28;20224;-85
2023/12/16 00:58:53;;;;;;;29.50;12.70;;;;;;;;;;6159160;28;20057;-84
2023/12/16 01:01:55;;;;;;;29.92;12.13;;;;;;;;;;6178037;28;20073;-84
2023/12/16 01:04:57;;;;;;;33.60;12.93;;;;;;;;;;6163281;28;20050;-84
2023/12/16 01:07:59;;;;;;;27.13;11.57;;;;;;;;;;6163310;28;20062;-83
2023/12/16 01:11:01;;;;;;;30.38;13.32;;;;;;;;;;6164248;28;20054;-83
2023/12/16 01:14:03;;;;;;;31.33;13.68;;;;;;;;;;6175154;28;20062;-84
2023/12/16 01:17:05;;;;;;;33.15;13.30;;;;;;;;;;6144927;28;20046;-84
2023/12/16 01:20:07;;;;;;;30.30;13.27;;;;;;;;;;6176426;28;20057;-84
2023/12/16 01:23:09;;;;;;;37.27;13.23;;;;;;;;;;6168770;28;20065;-83
2023/12/16 01:26:11;;;;;;;37.28;12.93;;;;;;;;;;6164680;28;20440;-83
2023/12/16 01:29:12;;;;;;;35.70;13.75;;;;;;;;;;6161854;28;20057;-84
2023/12/16 01:32:14;;;;;;;29.02;12.75;;;;;;;;;;6163274;28;20061;-83
2023/12/16 01:35:16;;;;;;;39.72;14.00;;;;;;;;;;6158165;28;20121;-84
2023/12/16 01:38:18;;;;;;;33.15;13.40;;;;;;;;;;6159905;28;20520;-84
2023/12/16 01:41:20;;;;;;;30.13;13.13;;;;;;;;;;6164541;28;20132;-84
2023/12/16 01:44:22;;;;;;;35.20;13.55;;;;;;;;;;6146726;28;20046;-84
2023/12/16 01:47:24;;;;;;;32.30;13.10;;;;;;;;;;6180252;28;20046;-84
2023/12/16 01:50:26;;;;;;;27.70;12.38;;;;;;;;;;6159097;28;20038;-84
2023/12/16 01:53:30;;;;;;;29.38;11.52;;;;;;;;;;6167311;28;20547;-84
2023/12/16 01:56:32;;;;;;;26.33;11.13;;;;;;;;;;6184237;28;20049;-85
2023/12/16 01:59:34;;;;;;;31.00;12.30;;;;;;;;;;6155443;28;20385;-85
2023/12/16 02:02:36;;;;;;;28.25;11.48;;;;;;;;;;6179441;28;20042;-86
2023/12/16 02:05:38;;;;;;;26.02;11.73;;;;;;;;;;6179020;28;20054;-85
2023/12/16 02:08:40;;;;;;;30.00;11.65;;;;;;;;;;6183090;28;20051;-84
2023/12/16 02:11:42;;;;;;;34.40;12.30;;;;;;;;;;6168270;28;20053;-85
2023/12/16 02:14:43;;;;;;;26.58;11.23;;;;;;;;;;6143486;28;20456;-85
2023/12/16 02:17:45;;;;;;;26.45;10.52;;;;;;;;;;6145602;28;20046;-85
2023/12/16 02:20:48;;;;;;;25.63;9.93;;;;;;;;;;6155808;28;20050;-85
2023/12/16 02:23:49;;;;;;;26.50;11.15;;;;;;;;;;6164847;28;20557;-85
2023/12/16 02:26:51;;;;;;;30.58;10.80;;;;;;;;;;6162027;28;20054;-85
2023/12/16 02:29:53;;;;;;;25.90;11.25;;;;;;;;;;6140987;28;20046;-85
2023/12/16 02:32:56;;;;;;;26.55;11.02;;;;;;;;;;6142495;28;20121;-85
2023/12/16 02:36:00;;;;;;;24.47;10.27;;;;;;;;;;6161588;28;20042;-85
2023/12/16 02:39:02;;;;;;;27.85;9.82;;;;;;;;;;6161820;28;20058;-85
2023/12/16 02:42:04;;;;;;;25.00;11.07;;;;;;;;;;6159347;28;20043;-85
2023/12/16 02:45:06;;;;;;;26.67;10.05;;;;;;;;;;6179018;28;20128;-90
2023/12/16 02:48:07;;;;;;;27.60;10.95;;;;;;;;;;6152433;28;20420;-88
2023/12/16 02:51:19;;;;;;;30.33;10.45;;;;;;;;;;6191124;28;20060;-85
2023/12/16 02:54:21;;;;;;;24.95;10.10;;;;;;;;;;6179981;28;20058;-86
2023/12/16 02:57:23;;;;;;;26.23;10.70;;;;;;;;;;6159178;28;20389;-86
2023/12/16 03:00:25;;;;;;;25.75;10.32;;;;;;;;;;6174722;28;20560;-86
2023/12/16 03:03:27;;;;;;;25.27;10.65;;;;;;;;;;6161535;28;20609;-87
2023/12/16 03:06:29;;;;;;;22.80;9.63;;;;;;;;;;6157943;28;20461;-86
2023/12/16 03:09:31;;;;;;;25.38;10.70;;;;;;;;;;6176593;28;20069;-87
2023/12/16 03:12:33;;;;;;;23.88;10.10;;;;;;;;;;6175418;28;20510;-88
2023/12/16 03:15:35;;;;;;;21.95;9.95;;;;;;;;;;6167757;28;20041;-88
2023/12/16 03:18:37;;;;;;;23.52;10.82;;;;;;;;;;6171508;28;20053;-86
2023/12/16 03:21:39;;;;;;;25.10;9.65;;;;;;;;;;6164063;28;20046;-86
2023/12/16 03:24:41;;;;;;;25.73;10.23;;;;;;;;;;6193841;28;20049;-86
2023/12/16 03:27:43;;;;;;;24.73;10.25;;;;;;;;;;6144282;28;20061;-86
2023/12/16 03:30:45;;;;;;;22.98;10.13;;;;;;;;;;6184647;28;20048;-85
2023/12/16 03:33:47;;;;;;;22.42;9.75;;;;;;;;;;6146249;28;20046;-84
2023/12/16 03:36:49;;;;;;;31.63;10.55;;;;;;;;;;6175015;28;20045;-85
2023/12/16 03:39:51;;;;;;;28.75;10.48;;;;;;;;;;6181283;28;20772;-84
2023/12/16 03:42:52;;;;;;;23.42;10.30;;;;;;;;;;6154234;28;20552;-84
2023/12/16 03:45:54;;;;;;;25.20;9.52;;;;;;;;;;6166948;28;20054;-84
2023/12/16 03:48:56;;;;;;;27.55;9.82;;;;;;;;;;6165700;28;20058;-84
2023/12/16 03:51:58;;;;;;;26.98;11.85;;;;;;;;;;6176869;28;20053;-85
2023/12/16 03:55:00;;;;;;;29.30;13.55;;;;;;;;;;6148628;28;20073;-84
2023/12/16 03:58:01;;;;;;;25.67;9.55;;;;;;;;;;6168720;28;20275;-85
2023/12/16 04:01:04;;;;;;;33.00;10.60;;;;;;;;;;6147811;28;20051;-84
2023/12/16 04:04:06;;;;;;;24.13;9.30;;;;;;;;;;6165164;28;20054;-85
2023/12/16 04:07:09;;;;;;;26.08;9.88;;;;;;;;;;6179354;28;20049;-85
2023/12/16 04:10:11;;;;;;;24.10;9.25;;;;;;;;;;6156627;28;20076;-84
2023/12/16 04:13:15;;;;;;;25.55;9.52;;;;;;;;;;6180234;28;20073;-84
2023/12/16 04:16:16;;;;;;;19.48;7.70;;;;;;;;;;6164685;28;20043;-86
2023/12/16 04:19:18;;;;;;;22.40;8.38;;;;;;;;;;6151465;28;20235;-83
2023/12/16 04:22:20;;;;;;;21.10;8.13;;;;;;;;;;6182104;28;20046;-83
2023/12/16 04:25:22;;;;;;;17.98;8.40;;;;;;;;;;6157250;28;20042;-83
2023/12/16 04:28:24;;;;;;;18.00;8.43;;;;;;;;;;6168073;28;20575;-85
2023/12/16 04:31:26;;;;;;;21.27;8.77;;;;;;;;;;6171385;28;20042;-84
2023/12/16 04:34:27;;;;;;;14.90;5.60;;;;;;;;;;6180102;28;20589;-84
2023/12/16 04:37:29;;;;;;;13.95;6.30;;;;;;;;;;6169374;28;20050;-85
2023/12/16 04:40:31;;;;;;;12.75;5.40;;;;;;;;;;6198854;28;20049;-83
2023/12/16 04:43:33;;;;;;;21.33;9.98;;;;;;;;;;6184039;28;20100;-85
2023/12/16 04:46:37;;;;;;;14.65;7.38;;;;;;;;;;6172965;28;20051;-87
2023/12/16 04:49:42;;;;;;;20.45;7.38;;;;;;;;;;6150232;28;20046;-89
2023/12/16 04:52:44;;;;;;;14.52;7.03;;;;;;;;;;6159172;28;20057;-86
2023/12/16 04:55:46;;;;;;;14.43;6.47;;;;;;;;;;6173952;28;20050;-85
2023/12/16 04:58:51;;;;;;;17.83;7.22;;;;;;;;;;6168173;28;20505;-86
2023/12/16 05:01:52;;;;;;;16.88;7.18;;;;;;;;;;6153333;28;20144;-87
2023/12/16 05:04:54;;;;;;;18.42;7.78;;;;;;;;;;6161633;28;20049;-86
2023/12/16 05:07:56;;;;;;;19.90;7.47;;;;;;;;;;6167452;28;20065;-86
2023/12/16 05:10:58;;;;;;;15.20;6.47;;;;;;;;;;6188285;28;20054;-88
2023/12/16 05:14:00;;;;;;;14.82;6.43;;;;;;;;;;6175786;28;20759;-86
2023/12/16 05:17:01;;;;;;;14.00;5.07;;;;;;;;;;6174918;28;20464;-86
2023/12/16 05:20:04;;;;;;;15.77;4.50;;;;;;;;;;6171009;28;20058;-86
2023/12/16 05:23:06;;;;;;;15.95;4.53;;;;;;;;;;6169283;28;20051;-86
2023/12/16 05:26:08;;;;;;;12.98;4.50;;;;;;;;;;6135032;28;20047;-86
2023/12/16 05:29:09;;;;;;;10.63;5.13;;;;;;;;;;6200427;28;20051;-86
2023/12/16 05:32:11;;;;;;;10.00;4.47;;;;;;;;;;6127807;28;20046;-86
2023/12/16 05:35:13;;;;;;;10.90;4.00;;;;;;;;;;6182383;28;20046;-87
2023/12/16 05:38:15;;;;;;;8.75;4.00;;;;;;;;;;6186711;28;20104;-88
2023/12/16 05:41:17;;;;;;;10.00;3.88;;;;;;;;;;6178211;28;20176;-90
2023/12/16 05:44:19;;;;;;;8.25;3.75;;;;;;;;;;6161742;28;20046;-85
2023/12/16 05:47:21;;;;;;;7.97;3.45;;;;;;;;;;6189916;28;20050;-85
2023/12/16 05:50:22;;;;;;;7.72;3.38;;;;;;;;;;6147892;28;20100;-86
2023/12/16 05:53:24;;;;;;;13.05;3.67;;;;;;;;;;6185045;28;20038;-86
2023/12/16 05:56:26;;;;;;;10.82;3.53;;;;;;;;;;6170778;28;20046;-87
2023/12/16 05:59:30;;;;;;;9.68;3.70;;;;;;;;;;6171382;28;20043;-86
2023/12/16 06:02:32;;;;;;;10.77;3.80;;;;;;;;;;6166750;28;20054;-87
2023/12/16 06:05:34;;;;;;;10.48;3.95;;;;;;;;;;6180274;28;20101;-87
2023/12/16 06:08:36;;;;;;;6.15;3.10;;;;;;;;;;6168888;28;20061;-88
2023/12/16 06:11:38;;;;;;;8.00;3.10;;;;;;;;;;6146787;28;20043;-86
2023/12/16 06:14:40;;;;;;;7.68;3.80;;;;;;;;;;6171088;28;20046;-88
2023/12/16 06:17:42;;;;;;;8.73;3.35;;;;;;;;;;6192111;28;20053;-86
2023/12/16 06:20:44;;;;;;;8.95;3.67;;;;;;;;;;6160729;28;20185;-86
2023/12/16 06:23:46;;;;;;;7.90;2.85;;;;;;;;;;6168368;28;20053;-86
2023/12/16 06:26:51;;;;;;;5.85;3.60;;;;;;;;;;6184094;28;20050;-87
2023/12/16 06:29:54;;;;;;;8.18;3.38;;;;;;;;;;6150882;28;20034;-86
2023/12/16 06:32:56;;;;;;;10.03;3.17;;;;;;;;;;6157638;28;20064;-87
2023/12/16 06:35:58;;;;;;;6.72;3.25;;;;;;;;;;6165583;28;20047;-87
2023/12/16 06:39:00;;;;;;;8.77;3.67;;;;;;;;;;6168163;28;20046;-86
2023/12/16 06:42:02;;;;;;;6.70;3.30;;;;;;;;;;6172001;28;20057;-87
2023/12/16 06:45:05;;;;;;;7.25;3.25;;;;;;;;;;6166091;28;20047;-88
2023/12/16 06:48:07;;;;;;;10.95;3.25;;;;;;;;;;6172291;28;20058;-87
2023/12/16 06:51:09;;;;;;;7.97;3.33;;;;;;;;;;6170325;28;20054;-86
2023/12/16 06:54:11;;;;;;;7.50;3.70;;;;;;;;;;6144568;28;20077;-87
2023/12/16 06:57:13;;;;;;;5.40;3.67;;;;;;;;;;6178251;28;20062;-87
2023/12/16 07:00:15;;;;;;;11.32;4.10;;;;;;;;;;6164341;28;20058;-88
2023/12/16 07:03:17;;;;;;;8.07;3.72;;;;;;;;;;6179046;28;20046;-87
2023/12/16 07:06:19;;;;;;;10.02;3.42;;;;;;;;;;6194660;28;20054;-87
2023/12/16 07:09:21;;;;;;;10.77;3.58;;;;;;;;;;6171646;28;20058;-87
2023/12/16 07:12:23;;;;;;;8.48;3.95;;;;;;;;;;6185555;28;20145;-88
2023/12/16 07:15:25;;;;;;;9.73;4.28;;;;;;;;;;6177991;28;20348;-88
2023/12/16 07:18:30;;;;;;;9.25;3.70;;;;;;;;;;6177460;28;20050;-88
2023/12/16 07:21:32;;;;;;;7.75;3.53;;;;;;;;;;6169398;28;20042;-86
2023/12/16 07:24:34;;;;;;;7.65;3.60;;;;;;;;;;6178397;28;20061;-89
2023/12/16 07:27:36;;;;;;;12.60;4.72;;;;;;;;;;6176244;28;20053;-89
2023/12/16 07:30:38;;;;;;;11.88;4.38;;;;;;;;;;6152803;28;20130;-87
2023/12/16 07:33:40;;;;;;;7.75;4.20;;;;;;;;;;6166183;28;20046;-88
2023/12/16 07:36:42;;;;;;;11.13;4.43;;;;;;;;;;6186368;28;20082;-89
2023/12/16 07:39:44;;;;;;;11.35;4.45;;;;;;;;;;6146808;28;20502;-90
2023/12/16 07:42:46;;;;;;;7.22;3.85;;;;;;;;;;6170201;28;20141;-86
2023/12/16 07:45:48;;;;;;;7.85;3.67;;;;;;;;;;6150060;28;20127;-86
2023/12/16 07:48:50;;;;;;;9.18;4.30;;;;;;;;;;6157073;28;20417;-87
2023/12/16 07:51:54;;;;;;;8.15;4.10;;;;;;;;;;6181562;28;20528;-86
2023/12/16 07:54:57;;;;;;;6.68;3.40;;;;;;;;;;6167303;28;20053;-86
2023/12/16 07:57:59;;;;;;;11.53;3.87;;;;;;;;;;6176690;28;20042;-87
2023/12/16 08:01:02;;;;;;;6.70;3.22;;;;;;;;;;6153630;28;20094;-87
2023/12/16 08:04:06;;;;;;;8.90;3.67;;;;;;;;;;6187653;28;20672;-87
2023/12/16 08:07:11;;;;;;;9.07;4.05;;;;;;;;;;6190566;28;20057;-87
2023/12/16 08:10:15;;;;;;;10.07;4.88;;;;;;;;;;6173433;28;20057;-87
2023/12/16 08:13:17;;;;;;;15.20;5.32;;;;;;;;;;6167758;28;20505;-87
2023/12/16 08:16:19;;;;;;;9.10;5.18;;;;;;;;;;6152775;28;20054;-86
2023/12/16 08:19:21;;;;;;;9.23;4.05;;;;;;;;;;6174222;28;20858;-86
2023/12/16 08:22:23;;;;;;;12.07;4.72;;;;;;;;;;6167588;28;20387;-88
2023/12/16 08:25:25;;;;;;;9.00;4.00;;;;;;;;;;6169214;28;20050;-87
2023/12/16 08:28:27;;;;;;;7.93;3.63;;;;;;;;;;6160293;28;20504;-86
2023/12/16 08:31:29;;;;;;;9.93;4.28;;;;;;;;;;6175757;28;20587;-85
2023/12/16 08:34:33;;;;;;;13.38;4.45;;;;;;;;;;6160176;28;20544;-86
2023/12/16 08:37:36;;;;;;;11.13;3.72;;;;;;;;;;6168030;28;20049;-86
2023/12/16 08:40:39;;;;;;;;;;;;;;;;;;6186347;28;20046;-87
2023/12/16 08:43:42;;;;;;;6.97;3.53;;;;;;;;;;6150194;28;19922;-84
2023/12/16 08:46:44;;;;;;;11.90;3.83;;;;;;;;;;6161605;28;20057;-84
2023/12/16 08:49:46;;;;;;;10.52;4.47;;;;;;;;;;6161872;28;20680;-85
2023/12/16 08:52:48;;;;;;;8.18;4.82;;;;;;;;;;6159377;28;20077;-85
2023/12/16 08:55:51;;;;;;;9.50;4.17;;;;;;;;;;6145157;28;20133;-84
2023/12/16 08:58:53;;;;;;;10.93;4.22;;;;;;;;;;6163022;28;20510;-84
2023/12/16 09:01:54;;;;;;;10.93;4.22;;;;;;;;;;6166034;28;20046;-84
2023/12/16 09:04:56;;;;;;;8.40;4.25;;;;;;;;;;6143291;28;20080;-85
2023/12/16 09:07:58;;;;;;;9.48;4.97;;;;;;;;;;6182196;28;20070;-85
2023/12/16 09:10:59;;;;;;;10.15;5.03;;;;;;;;;;6156327;28;20039;-85
2023/12/16 09:14:04;;;;;;;8.32;4.22;;;;;;;;;;6164110;28;20061;-84
2023/12/16 09:17:06;;;;;;;12.15;5.18;;;;;;;;;;6165083;28;20052;-84
2023/12/16 09:20:08;;;;;;;8.77;4.57;;;;;;;;;;6163727;28;20053;-84
2023/12/16 09:23:09;;;;;;;7.32;4.20;;;;;;;;;;6162908;28;20050;-84
2023/12/16 09:26:11;;;;;;;8.77;4.07;;;;;;;;;;6166044;28;20656;-84
2023/12/16 09:29:13;;;;;;;11.38;4.30;;;;;;;;;;6164552;28;20101;-84
2023/12/16 09:32:15;;;;;;;7.35;3.63;;;;;;;;;;6139694;28;20410;-84
2023/12/16 09:35:16;;;;;;;8.82;3.85;;;;;;;;;;6169199;28;20124;-84
2023/12/16 09:38:18;;;;;;;13.30;4.03;;;;;;;;;;6164097;28;20054;-84
2023/12/16 09:41:23;;;;;;;11.00;4.10;;;;;;;;;;6161877;28;20054;-84
2023/12/16 09:44:26;;;;;;;10.45;4.03;;;;;;;;;;6180037;28;20144;-84
2023/12/16 09:47:28;;;;;;;10.68;3.80;;;;;;;;;;6172793;28;20508;-84
2023/12/16 09:50:31;;;;;;;8.55;4.60;;;;;;;;;;6135331;28;20057;-85
2023/12/16 09:53:32;;;;;;;10.30;5.13;;;;;;;;;;6170001;28;20077;-84
2023/12/16 09:56:35;;;;;;;7.07;4.78;;;;;;;;;;6145841;28;20453;-84
2023/12/16 09:59:39;;;;;;;9.07;4.25;;;;;;;;;;6178843;28;20052;-84
2023/12/16 10:02:46;;;;;;;8.93;4.20;;;;;;;;;;6169522;28;20070;-87
2023/12/16 10:05:49;;;;;;;8.88;4.38;;;;;;;;;;6169845;28;20062;-86
2023/12/16 10:08:51;;;;;;;6.95;4.10;;;;;;;;;;6184888;28;20058;-89
2023/12/16 10:11:56;;;;;;;10.27;4.53;;;;;;;;;;6174247;28;20057;-89
2023/12/16 10:14:58;;;;;;;8.77;3.90;;;;;;;;;;6171532;28;20050;-88
2023/12/16 10:18:02;;;;;;;13.52;3.33;;;;;;;;;;6159923;28;20413;-88
2023/12/16 10:21:05;;;;;;;9.48;3.85;;;;;;;;;;6147390;28;20082;-87
2023/12/16 10:24:16;;;;;;;10.77;4.22;;;;;;;;;;6170577;28;20045;-87
2023/12/16 10:27:19;;;;;;;7.03;3.42;;;;;;;;;;6157833;28;20532;-88
2023/12/16 10:30:21;;;;;;;9.98;4.53;;;;;;;;;;6143245;28;20049;-88
2023/12/16 10:33:27;;;;;;;9.10;4.13;;;;;;;;;;6130983;28;20481;-87
2023/12/16 10:36:30;;;;;;;9.43;4.30;;;;;;;;;;6160911;28;20042;-88
2023/12/16 10:39:32;;;;;;;9.38;4.50;;;;;;;;;;6158745;28;20129;-87
2023/12/16 10:42:34;;;;;;;8.27;4.38;;;;;;;;;;6139834;28;20103;-87
2023/12/16 10:45:36;;;;;;;8.70;4.53;;;;;;;;;;6145228;28;20046;-89
2023/12/16 10:48:39;;;;;;;11.05;5.53;;;;;;;;;;6162873;28;20128;-87
2023/12/16 10:51:44;;;;;;;9.52;5.18;;;;;;;;;;6163637;28;20145;-86
2023/12/16 10:54:59;;;;;;;9.32;4.47;;;;;;;;;;6161050;28;20791;-86
2023/12/16 10:58:26;;;;;;;10.68;4.38;;;;;;;;;;6163231;28;20050;-86
2023/12/16 11:01:31;;;;;;;8.73;4.18;;;;;;;;;;6177816;28;20052;-88
2023/12/16 11:04:37;;;;;;;11.07;3.60;;;;;;;;;;6165447;28;20045;-86
2023/12/16 11:07:39;;;;;;;7.80;3.78;;;;;;;;;;6144597;28;20137;-88
2023/12/16 11:10:41;;;;;;;12.75;4.05;;;;;;;;;;6131830;28;20510;-85
2023/12/16 11:13:44;;;;;;;7.68;4.22;;;;;;;;;;6172390;28;20049;-89
2023/12/16 11:17:11;;;;;;;10.55;3.97;;;;;;;;;;6160231;28;20345;-86
2023/12/16 11:20:22;;;;;;;9.27;3.95;;;;;;;;;;6166655;28;20058;-86
2023/12/16 11:23:23;;;;;;;8.90;3.63;;;;;;;;;;6141400;28;20050;-86
2023/12/16 11:26:27;;;;;;;8.65;4.25;;;;;;;;;;6142176;28;20074;-88
2023/12/16 11:29:30;;;;;;;9.27;3.80;;;;;;;;;;6178251;28;20856;-87
2023/12/16 11:32:32;;;;;;;10.18;3.75;;;;;;;;;;6150499;28;20074;-89
2023/12/16 11:35:42;;;;;;;9.90;3.20;;;;;;;;;;6145952;28;20129;-88
2023/12/16 11:38:46;;;;;;;6.50;3.67;;;;;;;;;;6153233;28;20058;-89
2023/12/16 11:41:49;;;;;;;13.20;3.60;;;;;;;;;;6142061;28;20042;-88
2023/12/16 11:44:55;;;;;;;10.55;3.40;;;;;;;;;;6163070;28;20628;-89
2023/12/16 11:47:58;;;;;;;13.73;3.67;;;;;;;;;;6151868;28;20042;-88
2023/12/16 11:51:00;;;;;;;11.13;3.72;;;;;;;;;;6161901;28;20050;-88
2023/12/16 11:54:03;;;;;;;9.67;3.90;;;;;;;;;;6124274;28;20057;-89
2023/12/16 11:57:05;;;;;;;9.40;3.58;;;;;;;;;;6140561;28;20413;-87
2023/12/16 12:00:08;;;;;;;7.88;3.05;;;;;;;;;;6153860;28;20049;-88
2023/12/16 12:03:10;;;;;;;7.28;3.55;;;;;;;;;;6147503;28;20497;-87
2023/12/16 12:06:13;;;;;;;5.15;3.10;;;;;;;;;;6183717;28;20758;-89
2023/12/16 12:09:15;;;;;;;9.55;3.22;;;;;;;;;;6140495;28;20042;-88
2023/12/16 12:12:17;;;;;;;7.82;3.25;;;;;;;;;;6180777;28;20068;-87
2023/12/16 12:15:22;;;;;;;9.13;3.00;;;;;;;;;;6183354;28;20042;-88
2023/12/16 12:18:30;;;;;;;7.25;2.85;;;;;;;;;;6156078;28;20493;-88
2023/12/16 12:21:35;;;;;;;8.20;2.88;;;;;;;;;;6138030;28;20050;-89
2023/12/16 12:24:37;;;;;;;7.13;3.05;;;;;;;;;;6183583;28;20049;-88
2023/12/16 12:27:39;;;;;;;6.93;3.08;;;;;;;;;;6166197;28;20142;-87
2023/12/16 12:30:41;;;;;;;10.75;3.45;;;;;;;;;;6165148;28;20061;-87
2023/12/16 12:33:44;;;;;;;6.80;3.30;;;;;;;;;;6175569;28;20042;-87
2023/12/16 12:36:53;;;;;;;9.00;3.25;;;;;;;;;;6165491;28;20059;-90
2023/12/16 12:39:57;;;;;;;7.85;3.13;;;;;;;;;;6142720;28;20051;-88
2023/12/16 12:42:59;;;;;;;8.95;2.72;;;;;;;;;;6148012;28;20051;-89
2023/12/16 12:46:13;;;;;;;7.63;3.20;;;;;;;;;;6166289;28;20117;-87
2023/12/16 12:49:16;;;;;;;9.18;2.55;;;;;;;;;;6175696;28;20390;-89
2023/12/16 12:52:21;;;;;;;;;;;;;;;;;;6169820;28;20062;-89
2023/12/16 12:55:24;;;;;;;12.15;2.42;;;;;;;;;;6155507;28;20415;-89
2023/12/16 12:58:32;;;;;;;13.00;2.75;;;;;;;;;;6138273;28;20042;-88
2023/12/16 13:01:34;;;;;;;10.63;2.53;;;;;;;;;;6141548;28;20038;-88
2023/12/16 13:04:36;;;;;;;8.48;2.33;;;;;;;;;;6138676;28;20050;-87
2023/12/16 13:07:48;;;;;;;7.07;2.40;;;;;;;;;;6152340;28;20526;-87
2023/12/16 13:10:52;;;;;;;8.70;2.30;;;;;;;;;;6155714;28;20050;-90
2023/12/16 13:13:54;;;;;;;5.80;2.70;;;;;;;;;;6179380;28;20567;-88
2023/12/16 13:16:58;;;;;;;10.93;2.70;;;;;;;;;;6131856;28;20718;-88
2023/12/16 13:20:00;;;;;;;6.22;2.33;;;;;;;;;;6151485;28;20467;-89
2023/12/16 13:23:02;;;;;;;6.95;2.65;;;;;;;;;;6158142;28;20077;-88
2023/12/16 13:26:10;;;;;;;7.90;2.60;;;;;;;;;;6138464;28;20189;-88
2023/12/16 13:29:13;;;;;;;9.55;3.75;;;;;;;;;;6134484;28;20042;-88
2023/12/16 13:32:15;;;;;;;8.38;2.70;;;;;;;;;;6158171;28;20596;-86
2023/12/16 13:35:23;;;;;;;11.82;3.95;;;;;;;;;;6176527;28;21239;-85
2023/12/16 13:38:26;;;;;;;8.60;2.70;;;;;;;;;;6149614;28;20177;-88
2023/12/16 13:41:28;;;;;;;7.50;2.70;;;;;;;;;;6120598;28;20133;-88
2023/12/16 13:44:39;;;;;;;13.90;2.65;;;;;;;;;;6128470;28;20741;-88
2023/12/16 13:47:44;;;;;;;8.20;2.28;;;;;;;;;;6139885;28;20046;-87
2023/12/16 13:50:48;;;;;;;14.88;4.10;;;;;;;;;;6139054;28;20050;-86
2023/12/16 13:53:50;;;;;;;14.30;6.05;;;;;;;;;;6132885;28;20570;-87
2023/12/16 13:56:54;;;;;;;16.30;8.32;;;;;;;;;;6150634;28;20045;-86
2023/12/16 13:59:58;;;;;;;11.55;4.60;;;;;;;;;;6149742;28;20050;-87
2023/12/16 14:03:01;;;;;;;11.60;6.37;;;;;;;;;;6153397;28;20062;-88
2023/12/16 14:06:03;;;;;;;14.35;6.72;;;;;;;;;;6166647;28;20747;-86
2023/12/16 14:09:05;;;;;;;12.67;4.33;;;;;;;;;;6157671;28;20073;-86
2023/12/16 14:12:07;;;;;;;9.55;4.50;;;;;;;;;;6159140;28;20506;-87
2023/12/16 14:15:09;;;;;;;18.40;6.47;;;;;;;;;;6148113;28;20053;-86
2023/12/16 14:18:13;;;;;;;20.08;8.65;;;;;;;;;;6139172;28;20051;-86
2023/12/16 14:21:19;;;;;;;10.77;4.07;;;;;;;;;;6147031;28;20046;-87
2023/12/16 14:24:23;;;;;;;15.52;4.85;;;;;;;;;;6155064;28;20046;-87
2023/12/16 14:27:25;;;;;;;15.20;4.90;;;;;;;;;;6158787;28;20050;-88
2023/12/16 14:30:28;;;;;;;10.68;4.13;;;;;;;;;;6154441;28;20046;-87
2023/12/16 14:33:30;;;;;;;15.95;5.20;;;;;;;;;;6149141;28;20069;-87
2023/12/16 14:36:32;;;;;;;17.52;6.80;;;;;;;;;;6140330;28;20081;-87
2023/12/16 14:39:34;;;;;;;11.30;4.18;;;;;;;;;;6165662;28;20046;-87
2023/12/16 14:42:36;;;;;;;12.85;3.67;;;;;;;;;;6157459;28;20053;-87
2023/12/16 14:45:38;;;;;;;9.07;2.72;;;;;;;;;;6143491;28;20517;-88
2023/12/16 14:48:41;;;;;;;7.97;2.75;;;;;;;;;;6130647;28;20042;-88
2023/12/16 14:51:43;;;;;;;11.32;2.67;;;;;;;;;;6139521;28;20050;-87
2023/12/16 14:54:45;;;;;;;7.35;2.70;;;;;;;;;;6175334;28;20053;-87
2023/12/16 14:57:49;;;;;;;10.35;3.60;;;;;;;;;;6144525;28;20211;-87
2023/12/16 15:00:51;;;;;;;9.02;3.40;;;;;;;;;;6139259;28;20054;-88
2023/12/16 15:03:54;;;;;;;11.63;3.10;;;;;;;;;;6146384;28;20056;-87
2023/12/16 15:06:58;;;;;;;11.48;3.20;;;;;;;;;;6142150;28;20497;-87
2023/12/16 15:10:02;;;;;;;9.13;3.05;;;;;;;;;;6152852;28;20046;-87
2023/12/16 15:13:05;;;;;;;12.68;2.85;;;;;;;;;;6172125;28;20061;-87
2023/12/16 15:16:10;;;;;;;13.13;2.97;;;;;;;;;;6163853;28;20050;-87
2023/12/16 15:19:13;;;;;;;7.50;2.47;;;;;;;;;;6181683;28;20043;-86
2023/12/16 15:22:15;;;;;;;8.07;2.73;;;;;;;;;;6157145;28;20050;-87
2023/12/16 15:25:17;;;;;;;6.93;3.33;;;;;;;;;;6169767;28;20513;-87
2023/12/16 15:28:19;;;;;;;9.85;3.08;;;;;;;;;;6172925;28;20042;-87
2023/12/16 15:31:21;;;;;;;8.77;3.03;;;;;;;;;;6165599;28;20061;-86
2023/12/16 15:34:23;;;;;;;6.68;2.80;;;;;;;;;;6165357;28;20066;-86
2023/12/16 15:37:30;;;;;;;13.13;3.50;;;;;;;;;;6148409;28;20144;-87
2023/12/16 15:40:33;;;;;;;9.77;3.17;;;;;;;;;;6163240;28;20088;-86
2023/12/16 15:43:35;;;;;;;9.35;4.45;;;;;;;;;;6149690;28;20174;-86
2023/12/16 15:46:40;;;;;;;10.75;3.00;;;;;;;;;;6169703;28;20078;-86
2023/12/16 15:49:42;;;;;;;9.43;2.55;;;;;;;;;;6183217;28;20043;-86
2023/12/16 15:52:44;;;;;;;10.70;2.55;;;;;;;;;;6184364;28;20055;-85
2023/12/16 15:55:46;;;;;;;14.02;5.13;;;;;;;;;;6178952;28;20103;-87
2023/12/16 15:58:49;;;;;;;13.38;6.07;;;;;;;;;;6150496;28;20050;-86
2023/12/16 16:01:51;;;;;;;12.23;2.90;;;;;;;;;;6166131;28;20173;-85
2023/12/16 16:04:53;;;;;;;5.72;2.72;;;;;;;;;;6166852;28;20050;-85
2023/12/16 16:07:55;;;;;;;14.05;7.22;;;;;;;;;;6152379;28;20074;-86
2023/12/16 16:10:57;;;;;;;12.02;6.07;;;;;;;;;;6174109;28;20059;-85
2023/12/16 16:13:59;;;;;;;13.55;4.15;;;;;;;;;;6182484;28;20038;-85
2023/12/16 16:17:03;;;;;;;;;;;;;;;;;;6152077;28;20096;-86
2023/12/16 16:20:07;;;;;;;12.60;3.85;;;;;;;;;;6155365;28;19928;-86
2023/12/16 16:23:12;;;;;;;8.82;3.45;;;;;;;;;;6121557;28;20089;-87
2023/12/16 16:26:14;;;;;;;14.18;4.60;;;;;;;;;;6159146;28;20042;-87
2023/12/16 16:29:16;;;;;;;18.38;5.13;;;;;;;;;;6166131;28;20053;-86
2023/12/16 16:32:18;;;;;;;9.82;4.88;;;;;;;;;;6160877;28;20053;-88
2023/12/16 16:35:21;;;;;;;12.05;4.55;;;;;;;;;;6176075;28;20078;-86
2023/12/16 16:38:22;;;;;;;9.70;3.90;;;;;;;;;;6146486;28;20042;-87
2023/12/16 16:41:25;;;;;;;13.60;6.10;;;;;;;;;;6148799;28;20070;-86
2023/12/16 16:44:29;;;;;;;14.85;6.38;;;;;;;;;;6154105;28;20039;-86
2023/12/16 16:47:33;;;;;;;11.15;5.82;;;;;;;;;;6165866;28;20049;-87
2023/12/16 16:50:35;;;;;;;17.52;7.35;;;;;;;;;;6163402;28;20050;-88
2023/12/16 16:53:38;;;;;;;18.60;5.25;;;;;;;;;;6136259;28;20149;-87
2023/12/16 16:56:40;;;;;;;13.98;5.18;;;;;;;;;;6164006;28;20057;-88
2023/12/16 16:59:45;;;;;;;12.77;5.15;;;;;;;;;;6169297;28;20046;-86
2023/12/16 17:02:49;;;;;;;13.20;5.78;;;;;;;;;;6171433;28;20144;-86
2023/12/16 17:05:54;;;;;;;15.05;5.00;;;;;;;;;;6143312;28;20307;-86
2023/12/16 17:08:59;;;;;;;10.30;3.75;;;;;;;;;;6130007;28;20436;-86
2023/12/16 17:12:01;;;;;;;7.35;3.67;;;;;;;;;;6147324;28;20430;-87
2023/12/16 17:15:09;;;;;;;8.88;4.22;;;;;;;;;;6141695;28;20456;-88
2023/12/16 17:18:11;;;;;;;13.13;4.97;;;;;;;;;;6165235;28;20050;-86
2023/12/16 17:21:16;;;;;;;12.43;4.60;;;;;;;;;;6136288;28;20057;-87
2023/12/16 17:24:22;;;;;;;8.77;4.22;;;;;;;;;;6159415;28;20117;-87
2023/12/16 17:27:26;;;;;;;16.77;4.43;;;;;;;;;;6139877;28;20049;-86
2023/12/16 17:30:28;;;;;;;10.30;3.78;;;;;;;;;;6132423;28;20042;-87
2023/12/16 17:33:30;;;;;;;9.63;3.47;;;;;;;;;;6148684;28;20046;-86
2023/12/16 17:36:33;;;;;;;12.27;3.33;;;;;;;;;;6147670;28;20424;-86
2023/12/16 17:39:35;;;;;;;9.68;3.90;;;;;;;;;;6156689;28;20363;-86
2023/12/16 17:42:37;;;;;;;12.02;4.25;;;;;;;;;;6141622;28;20069;-86
2023/12/16 17:45:39;;;;;;;9.20;3.75;;;;;;;;;;6158090;28;20184;-86
2023/12/16 17:48:40;;;;;;;8.13;4.85;;;;;;;;;;6177845;28;20053;-86
2023/12/16 17:51:43;;;;;;;10.95;4.40;;;;;;;;;;6150128;28;20508;-87
2023/12/16 17:54:45;;;;;;;10.75;3.88;;;;;;;;;;6164654;28;20046;-85
2023/12/16 17:57:47;;;;;;;10.70;3.28;;;;;;;;;;6148509;28;20046;-86
2023/12/16 18:00:49;;;;;;;8.90;3.58;;;;;;;;;;6155922;28;20046;-87
2023/12/16 18:03:57;;;;;;;;;;;;;;;;;;6142614;28;20042;-87